createdAt,value
2018-08-17T00:00:29.696Z,16.81
2018-08-17T00:02:58.480Z,16.80
2018-08-17T00:05:27.106Z,16.82
2018-08-17T00:07:55.640Z,16.95
2018-08-17T00:10:24.294Z,16.89
2018-08-17T00:12:52.864Z,16.98
2018-08-17T00:15:21.477Z,16.90
2018-08-17T00:17:49.974Z,16.92
2018-08-17T00:20:18.518Z,16.88
2018-08-17T00:22:47.152Z,16.90
2018-08-17T00:25:15.676Z,16.86
2018-08-17T00:27:44.293Z,16.97
2018-08-17T00:30:12.947Z,17.02
2018-08-17T00:32:41.505Z,17.11
2018-08-17T00:35:10.145Z,17.26
2018-08-17T00:37:38.670Z,17.13
2018-08-17T00:40:07.507Z,17.04
2018-08-17T00:42:36.022Z,17.15
2018-08-17T00:45:05.240Z,17.13
2018-08-17T00:47:33.749Z,17.15
2018-08-17T00:50:02.601Z,16.98
2018-08-17T00:52:31.092Z,16.84
2018-08-17T00:54:59.653Z,16.79
2018-08-17T00:57:28.172Z,16.76
2018-08-17T00:59:56.724Z,16.71
2018-08-17T01:02:25.327Z,16.89
2018-08-17T01:04:53.833Z,17.04
2018-08-17T01:07:22.351Z,17.10
2018-08-17T01:09:50.903Z,16.99
2018-08-17T01:12:19.613Z,17.00
2018-08-17T01:14:48.145Z,17.21
2018-08-17T01:17:16.654Z,17.09
2018-08-17T01:19:45.152Z,16.91
2018-08-17T01:22:13.885Z,17.15
2018-08-17T01:24:42.343Z,17.21
2018-08-17T01:27:10.882Z,17.27
2018-08-17T01:29:39.607Z,17.25
2018-08-17T01:32:08.204Z,17.24
2018-08-17T01:34:36.695Z,17.43
2018-08-17T01:37:05.497Z,17.46
2018-08-17T01:39:34.023Z,17.36
2018-08-17T01:42:02.617Z,17.24
2018-08-17T01:44:31.100Z,17.30
2018-08-17T01:46:59.656Z,17.52
2018-08-17T01:49:28.210Z,17.48
2018-08-17T01:51:56.793Z,17.11
2018-08-17T01:54:25.299Z,16.72
2018-08-17T01:57:11.886Z,16.78
2018-08-17T01:59:40.871Z,16.91
2018-08-17T02:02:09.485Z,16.84
2018-08-17T02:04:38.080Z,16.75
2018-08-17T02:07:06.600Z,16.63
2018-08-17T02:09:35.188Z,16.61
2018-08-17T02:12:03.714Z,16.60
2018-08-17T02:14:32.239Z,16.72
2018-08-17T02:17:00.879Z,16.67
2018-08-17T02:19:29.399Z,16.47
2018-08-17T02:21:58.027Z,16.56
2018-08-17T02:24:26.622Z,16.61
2018-08-17T02:26:55.110Z,16.76
2018-08-17T02:29:23.907Z,16.69
2018-08-17T02:31:52.595Z,16.44
2018-08-17T02:34:21.120Z,16.39
2018-08-17T02:36:49.634Z,16.47
2018-08-17T02:39:18.172Z,16.66
2018-08-17T02:41:46.810Z,16.70
2018-08-17T02:44:15.320Z,16.48
2018-08-17T02:46:43.811Z,16.37
2018-08-17T02:49:12.366Z,16.21
2018-08-17T02:51:40.850Z,16.19
2018-08-17T02:54:09.436Z,16.04
2018-08-17T02:56:38.064Z,15.94
2018-08-17T02:59:06.709Z,15.96
2018-08-17T03:01:35.615Z,16.06
2018-08-17T03:04:04.421Z,16.09
2018-08-17T03:06:32.917Z,16.10
2018-08-17T03:09:01.733Z,16.25
2018-08-17T03:11:30.245Z,16.28
2018-08-17T03:13:58.875Z,16.28
2018-08-17T03:16:27.334Z,16.37
2018-08-17T03:18:55.922Z,16.39
2018-08-17T03:21:25.042Z,16.44
2018-08-17T03:23:53.557Z,16.44
2018-08-17T03:26:22.978Z,16.48
2018-08-17T03:28:51.489Z,16.09
2018-08-17T03:31:19.984Z,16.11
2018-08-17T03:33:48.632Z,16.21
2018-08-17T03:36:17.139Z,16.24
2018-08-17T03:38:45.678Z,16.03
2018-08-17T03:41:14.163Z,16.21
2018-08-17T03:43:42.667Z,16.33
2018-08-17T03:46:11.371Z,16.41
2018-08-17T03:48:39.914Z,16.22
2018-08-17T03:51:08.463Z,16.24
2018-08-17T03:53:37.063Z,16.28
2018-08-17T03:56:05.547Z,16.25
2018-08-17T03:58:34.038Z,16.24
2018-08-17T04:01:03.114Z,16.28
2018-08-17T04:03:31.593Z,16.19
2018-08-17T04:06:00.111Z,16.01
2018-08-17T04:08:28.783Z,16.10
2018-08-17T04:10:57.289Z,16.09
2018-08-17T04:13:25.793Z,16.22
2018-08-17T04:15:54.303Z,16.38
2018-08-17T04:18:23.118Z,16.34
2018-08-17T04:20:51.688Z,16.38
2018-08-17T04:23:20.144Z,16.34
2018-08-17T04:25:48.668Z,16.48
2018-08-17T04:28:17.197Z,16.48
2018-08-17T04:30:45.748Z,16.51
2018-08-17T04:33:14.320Z,16.57
2018-08-17T04:35:42.980Z,16.56
2018-08-17T04:38:11.717Z,16.58
2018-08-17T04:40:40.274Z,16.52
2018-08-17T04:43:09.330Z,16.55
2018-08-17T04:45:38.045Z,16.43
2018-08-17T04:48:06.553Z,16.44
2018-08-17T04:50:35.024Z,16.41
2018-08-17T04:53:03.529Z,16.41
2018-08-17T04:55:31.988Z,16.44
2018-08-17T04:58:01.529Z,16.50
2018-08-17T05:00:30.058Z,16.41
2018-08-17T05:02:58.536Z,16.41
2018-08-17T05:05:27.053Z,16.44
2018-08-17T05:07:55.557Z,16.42
2018-08-17T05:10:24.086Z,16.44
2018-08-17T05:12:52.660Z,16.32
2018-08-17T05:15:21.282Z,16.31
2018-08-17T05:17:49.898Z,16.28
2018-08-17T05:20:18.424Z,16.39
2018-08-17T05:22:46.935Z,16.47
2018-08-17T05:25:15.885Z,16.54
2018-08-17T05:27:44.455Z,16.46
2018-08-17T05:30:13.159Z,16.48
2018-08-17T05:32:41.662Z,16.55
2018-08-17T05:35:10.202Z,16.50
2018-08-17T05:37:38.715Z,16.36
2018-08-17T05:40:08.141Z,16.24
2018-08-17T05:42:37.230Z,16.28
2018-08-17T05:45:06.767Z,16.41
2018-08-17T05:47:35.439Z,16.43
2018-08-17T05:50:04.362Z,16.50
2018-08-17T05:52:32.901Z,16.56
2018-08-17T05:55:01.632Z,16.65
2018-08-17T05:57:31.483Z,16.74
2018-08-17T05:59:59.970Z,16.83
2018-08-17T06:02:28.530Z,16.93
2018-08-17T06:04:57.064Z,16.61
2018-08-17T06:07:25.542Z,16.73
2018-08-17T06:09:54.091Z,16.82
2018-08-17T06:12:22.819Z,16.94
2018-08-17T06:14:51.322Z,16.95
2018-08-17T06:17:19.860Z,16.67
2018-08-17T06:19:48.318Z,16.80
2018-08-17T06:22:19.893Z,16.97
2018-08-17T06:24:48.949Z,17.00
2018-08-17T06:27:17.476Z,16.85
2018-08-17T06:29:46.097Z,16.69
2018-08-17T06:32:14.610Z,16.58
2018-08-17T06:34:43.119Z,16.66
2018-08-17T06:37:11.704Z,16.71
2018-08-17T06:39:40.233Z,16.62
2018-08-17T06:42:08.798Z,16.56
2018-08-17T06:44:37.334Z,16.79
2018-08-17T06:47:05.994Z,16.79
2018-08-17T06:49:34.461Z,16.98
2018-08-17T06:52:03.260Z,16.92
2018-08-17T06:54:31.911Z,17.07
2018-08-17T06:57:00.464Z,17.09
2018-08-17T06:59:29.120Z,16.79
2018-08-17T07:01:57.787Z,16.95
2018-08-17T07:04:26.289Z,16.65
2018-08-17T07:06:54.848Z,16.60
2018-08-17T07:09:23.536Z,16.67
2018-08-17T07:11:52.183Z,16.71
2018-08-17T07:14:20.760Z,16.72
2018-08-17T07:16:49.407Z,16.71
2018-08-17T07:19:17.997Z,16.57
2018-08-17T07:21:46.632Z,16.72
2018-08-17T07:24:15.236Z,16.46
2018-08-17T07:26:43.903Z,16.60
2018-08-17T07:29:12.562Z,16.51
2018-08-17T07:31:41.053Z,16.73
2018-08-17T07:34:09.632Z,16.61
2018-08-17T07:36:38.276Z,16.70
2018-08-17T07:39:07.889Z,16.65
2018-08-17T07:41:37.305Z,16.83
2018-08-17T07:44:06.265Z,16.93
2018-08-17T07:46:34.925Z,17.11
2018-08-17T07:49:03.704Z,17.09
2018-08-17T07:51:32.246Z,16.91
2018-08-17T07:54:00.745Z,16.58
2018-08-17T07:56:29.259Z,16.64
2018-08-17T07:58:58.262Z,16.88
2018-08-17T08:01:26.738Z,17.03
2018-08-17T08:03:55.297Z,17.13
2018-08-17T08:06:23.840Z,17.20
2018-08-17T08:08:52.414Z,17.25
2018-08-17T08:11:20.954Z,17.00
2018-08-17T08:13:49.457Z,17.35
2018-08-17T08:16:18.040Z,17.64
2018-08-17T08:18:46.621Z,17.73
2018-08-17T08:21:15.178Z,17.58
2018-08-17T08:23:43.776Z,17.46
2018-08-17T08:26:12.319Z,17.13
2018-08-17T08:28:40.814Z,17.43
2018-08-17T08:31:09.525Z,17.48
2018-08-17T08:33:38.022Z,17.43
2018-08-17T08:36:06.601Z,17.61
2018-08-17T08:38:35.135Z,17.48
2018-08-17T08:41:03.661Z,17.41
2018-08-17T08:43:32.123Z,17.33
2018-08-17T08:46:00.691Z,17.30
2018-08-17T08:48:29.219Z,17.22
2018-08-17T08:50:57.798Z,17.16
2018-08-17T08:53:26.406Z,17.49
2018-08-17T08:55:55.060Z,17.33
2018-08-17T08:58:23.589Z,17.55
2018-08-17T09:00:52.124Z,17.45
2018-08-17T09:03:20.669Z,17.42
2018-08-17T09:05:49.227Z,17.45
2018-08-17T09:08:17.791Z,17.50
2018-08-17T09:10:46.372Z,17.52
2018-08-17T09:13:15.046Z,17.36
2018-08-17T09:15:43.594Z,17.61
2018-08-17T09:18:12.135Z,17.78
2018-08-17T09:20:40.787Z,17.84
2018-08-17T09:23:09.626Z,17.86
2018-08-17T09:25:38.227Z,17.81
2018-08-17T09:28:06.912Z,17.77
2018-08-17T09:30:35.444Z,18.02
2018-08-17T09:33:03.991Z,18.07
2018-08-17T09:35:32.549Z,18.14
2018-08-17T09:38:01.118Z,18.02
2018-08-17T09:40:29.656Z,18.15
2018-08-17T09:42:58.248Z,18.37
2018-08-17T09:45:26.797Z,18.47
2018-08-17T09:47:55.264Z,18.28
2018-08-17T09:50:23.879Z,18.57
2018-08-17T09:52:52.370Z,18.47
2018-08-17T09:55:20.847Z,18.70
2018-08-17T09:57:49.405Z,18.77
2018-08-17T10:00:17.952Z,18.78
2018-08-17T10:02:51.486Z,19.16
2018-08-17T10:05:25.275Z,19.39
2018-08-17T10:07:59.201Z,19.82
2018-08-17T10:10:29.324Z,19.69
2018-08-17T10:12:57.990Z,18.87
2018-08-17T10:15:26.476Z,19.49
2018-08-17T10:17:55.043Z,19.69
2018-08-17T10:20:24.125Z,19.56
2018-08-17T10:22:52.628Z,19.71
2018-08-17T10:25:23.223Z,19.76
2018-08-17T10:27:53.098Z,19.33
2018-08-17T10:30:22.316Z,19.62
2018-08-17T10:32:54.729Z,19.35
2018-08-17T10:35:31.648Z,19.75
2018-08-17T10:38:03.244Z,19.78
2018-08-17T10:40:31.913Z,19.72
2018-08-17T10:43:01.905Z,19.69
2018-08-17T10:45:30.725Z,19.77
2018-08-17T10:47:59.428Z,20.23
2018-08-17T10:50:30.037Z,20.07
2018-08-17T10:52:59.845Z,20.41
2018-08-17T10:55:38.210Z,20.05
2018-08-17T10:58:07.432Z,20.13
2018-08-17T11:00:36.336Z,20.21
2018-08-17T11:03:04.931Z,20.40
2018-08-17T11:05:33.409Z,20.61
2018-08-17T11:08:01.953Z,20.54
2018-08-17T11:10:30.486Z,21.18
2018-08-17T11:12:58.949Z,21.33
2018-08-17T11:15:27.615Z,21.31
2018-08-17T11:17:56.169Z,21.18
2018-08-17T11:20:24.834Z,20.82
2018-08-17T11:22:53.404Z,21.12
2018-08-17T11:25:21.868Z,21.29
2018-08-17T11:27:51.234Z,21.12
2018-08-17T11:30:19.788Z,20.97
2018-08-17T11:32:48.528Z,21.08
2018-08-17T11:35:17.069Z,21.48
2018-08-17T11:37:45.565Z,21.72
2018-08-17T11:40:15.770Z,21.38
2018-08-17T11:42:48.196Z,21.37
2018-08-17T11:45:19.738Z,21.86
2018-08-17T11:47:48.662Z,22.02
2018-08-17T11:50:18.798Z,21.13
2018-08-17T11:52:51.321Z,21.76
2018-08-17T11:55:20.448Z,22.15
2018-08-17T11:57:49.116Z,22.54
2018-08-17T12:00:17.689Z,21.99
2018-08-17T12:02:46.367Z,22.00
2018-08-17T12:05:14.922Z,22.54
2018-08-17T12:07:44.383Z,22.93
2018-08-17T12:10:13.371Z,22.43
2018-08-17T12:12:42.654Z,21.76
2018-08-17T12:15:11.920Z,21.52
2018-08-17T12:17:40.438Z,22.28
2018-08-17T12:20:08.937Z,22.35
2018-08-17T12:22:37.440Z,22.75
2018-08-17T12:25:07.065Z,22.83
2018-08-17T12:27:35.706Z,23.36
2018-08-17T12:30:04.985Z,23.89
2018-08-17T12:32:33.611Z,24.25
2018-08-17T12:35:02.124Z,24.59
2018-08-17T12:37:30.901Z,25.15
2018-08-17T12:39:59.461Z,24.95
2018-08-17T12:42:28.174Z,24.07
2018-08-17T12:45:02.814Z,23.96
2018-08-17T12:47:32.005Z,22.71
2018-08-17T12:50:00.526Z,22.10
2018-08-17T12:52:29.119Z,22.15
2018-08-17T12:54:57.568Z,22.99
2018-08-17T12:57:30.293Z,23.45
2018-08-17T12:59:58.842Z,25.60
2018-08-17T13:02:27.781Z,24.86
2018-08-17T13:04:56.311Z,25.96
2018-08-17T13:07:24.851Z,28.99
2018-08-17T13:09:54.358Z,28.43
2018-08-17T13:12:22.951Z,26.10
2018-08-17T13:14:52.600Z,24.74
2018-08-17T13:17:21.244Z,25.71
2018-08-17T13:19:49.803Z,25.69
2018-08-17T13:22:18.648Z,25.75
2018-08-17T13:24:47.197Z,26.84
2018-08-17T13:27:15.969Z,27.49
2018-08-17T13:29:44.569Z,27.00
2018-08-17T13:32:13.118Z,25.74
2018-08-17T13:34:41.621Z,26.22
2018-08-17T13:37:10.168Z,25.77
2018-08-17T13:39:38.736Z,25.02
2018-08-17T13:42:07.468Z,25.68
2018-08-17T13:44:35.995Z,27.10
2018-08-17T13:47:04.624Z,28.51
2018-08-17T13:49:33.097Z,28.90
2018-08-17T13:52:01.672Z,28.96
2018-08-17T13:54:30.218Z,28.27
2018-08-17T13:56:58.699Z,28.08
2018-08-17T13:59:27.252Z,28.62
2018-08-17T14:01:58.198Z,28.59
2018-08-17T14:04:26.782Z,30.56
2018-08-17T14:06:55.352Z,29.91
2018-08-17T14:09:24.149Z,30.44
2018-08-17T14:11:52.821Z,31.52
2018-08-17T14:14:21.485Z,30.72
2018-08-17T14:16:50.039Z,30.79
2018-08-17T14:19:18.628Z,31.47
2018-08-17T14:21:47.141Z,27.53
2018-08-17T14:24:15.688Z,28.24
2018-08-17T14:26:44.172Z,26.52
2018-08-17T14:29:12.688Z,26.33
2018-08-17T14:31:41.164Z,24.33
2018-08-17T14:34:09.769Z,23.68
2018-08-17T14:36:38.347Z,23.15
2018-08-17T14:39:07.506Z,22.95
2018-08-17T14:41:46.032Z,23.21
2018-08-17T14:44:14.621Z,23.21
2018-08-17T14:46:43.163Z,24.04
2018-08-17T14:49:11.747Z,24.80
2018-08-17T14:51:40.283Z,24.51
2018-08-17T14:54:08.969Z,24.33
2018-08-17T14:56:37.525Z,24.87
2018-08-17T14:59:06.353Z,24.53
2018-08-17T15:01:35.049Z,23.79
2018-08-17T15:04:03.585Z,23.25
2018-08-17T15:06:32.304Z,22.85
2018-08-17T15:09:00.777Z,22.50
2018-08-17T15:11:29.377Z,23.63
2018-08-17T15:13:57.978Z,24.38
2018-08-17T15:16:26.552Z,24.41
2018-08-17T15:18:55.068Z,24.16
2018-08-17T15:21:23.726Z,23.52
2018-08-17T15:23:52.260Z,23.14
2018-08-17T15:26:20.776Z,23.70
2018-08-17T15:28:49.327Z,24.16
2018-08-17T15:31:17.906Z,26.37
2018-08-17T15:33:46.455Z,26.77
2018-08-17T15:36:15.135Z,27.32
2018-08-17T15:38:44.087Z,26.26
2018-08-17T15:41:12.622Z,25.79
2018-08-17T15:43:41.172Z,26.60
2018-08-17T15:46:09.778Z,25.27
2018-08-17T15:48:44.488Z,26.33
2018-08-17T15:51:15.363Z,27.62
2018-08-17T15:53:43.997Z,27.90
2018-08-17T15:56:13.141Z,26.70
2018-08-17T15:58:41.708Z,26.05
2018-08-17T16:01:10.550Z,25.46
2018-08-17T16:03:39.309Z,26.20
2018-08-17T16:06:08.532Z,26.01
2018-08-17T16:08:37.100Z,26.54
2018-08-17T16:11:05.704Z,26.00
2018-08-17T16:13:34.237Z,27.42
2018-08-17T16:16:02.789Z,28.44
2018-08-17T16:18:31.659Z,26.70
2018-08-17T16:21:00.233Z,28.04
2018-08-17T16:23:28.780Z,28.70
2018-08-17T16:25:57.486Z,25.68
2018-08-17T16:28:26.281Z,27.25
2018-08-17T16:30:54.820Z,26.62
2018-08-17T16:33:23.365Z,26.60
2018-08-17T16:35:51.916Z,25.86
2018-08-17T16:38:20.467Z,27.65
2018-08-17T16:40:51.711Z,26.49
2018-08-17T16:43:29.420Z,26.19
2018-08-17T16:45:57.982Z,25.90
2018-08-17T16:48:26.485Z,25.26
2018-08-17T16:50:55.036Z,26.36
2018-08-17T16:53:23.519Z,25.03
2018-08-17T16:55:52.048Z,25.12
2018-08-17T16:58:20.606Z,25.32
2018-08-17T17:00:49.219Z,24.99
2018-08-17T17:03:17.853Z,25.70
2018-08-17T17:05:46.474Z,26.73
2018-08-17T17:08:15.037Z,25.72
2018-08-17T17:10:43.808Z,25.56
2018-08-17T17:13:12.325Z,27.21
2018-08-17T17:15:40.798Z,25.96
2018-08-17T17:18:09.951Z,25.63
2018-08-17T17:20:39.403Z,26.28
2018-08-17T17:23:09.304Z,24.85
2018-08-17T17:25:37.913Z,24.49
2018-08-17T17:28:06.819Z,24.93
2018-08-17T17:30:44.057Z,25.33
2018-08-17T17:33:12.734Z,26.18
2018-08-17T17:35:42.411Z,26.08
2018-08-17T17:38:11.530Z,25.34
2018-08-17T17:40:40.905Z,25.75
2018-08-17T17:43:09.732Z,25.13
2018-08-17T17:45:38.882Z,24.50
2018-08-17T17:48:07.581Z,25.36
2018-08-17T17:50:36.086Z,24.28
2018-08-17T17:53:04.978Z,25.01
2018-08-17T17:55:44.269Z,24.75
2018-08-17T17:58:13.507Z,24.16
2018-08-17T18:00:46.205Z,24.31
2018-08-17T18:03:14.852Z,24.40
2018-08-17T18:05:43.376Z,23.74
2018-08-17T18:08:17.350Z,24.17
2018-08-17T18:10:46.094Z,23.79
2018-08-17T18:13:14.671Z,23.26
2018-08-17T18:15:43.226Z,23.52
2018-08-17T18:18:11.764Z,23.14
2018-08-17T18:20:40.886Z,22.96
2018-08-17T18:23:09.413Z,22.46
2018-08-17T18:25:38.069Z,21.64
2018-08-17T18:28:06.754Z,21.34
2018-08-17T18:30:35.419Z,21.12
2018-08-17T18:33:04.032Z,21.07
2018-08-17T18:35:32.517Z,20.86
2018-08-17T18:38:01.155Z,20.65
2018-08-17T18:40:29.789Z,20.65
2018-08-17T18:42:58.377Z,20.54
2018-08-17T18:45:27.068Z,20.49
2018-08-17T18:47:55.643Z,20.11
2018-08-17T18:50:24.352Z,20.09
2018-08-17T18:52:52.995Z,20.06
2018-08-17T18:55:21.501Z,20.08
2018-08-17T18:57:50.035Z,19.89
2018-08-17T19:00:18.578Z,19.84
2018-08-17T19:02:47.161Z,19.77
2018-08-17T19:05:15.703Z,19.71
2018-08-17T19:07:44.335Z,19.55
2018-08-17T19:10:13.057Z,19.46
2018-08-17T19:12:41.554Z,19.48
2018-08-17T19:15:11.537Z,19.45
2018-08-17T19:17:40.455Z,19.44
2018-08-17T19:20:11.480Z,19.40
2018-08-17T19:22:43.659Z,19.27
2018-08-17T19:25:13.764Z,19.24
2018-08-17T19:27:42.907Z,19.19
2018-08-17T19:30:25.534Z,19.12
2018-08-17T19:32:55.429Z,19.01
2018-08-17T19:35:24.188Z,18.93
2018-08-17T19:37:53.507Z,18.85
2018-08-17T19:40:23.014Z,18.78
2018-08-17T19:42:51.829Z,18.69
2018-08-17T19:45:21.094Z,18.60
2018-08-17T19:47:50.048Z,18.54
2018-08-17T19:50:18.556Z,18.43
2018-08-17T19:52:47.230Z,18.44
2018-08-17T19:55:15.815Z,18.44
2018-08-17T19:57:44.313Z,18.50
2018-08-17T20:00:13.683Z,18.36
2018-08-17T20:02:42.568Z,18.28
2018-08-17T20:05:11.485Z,18.31
2018-08-17T20:07:40.309Z,18.20
2018-08-17T20:10:10.249Z,18.07
2018-08-17T20:12:38.929Z,18.02
2018-08-17T20:15:07.977Z,17.95
2018-08-17T20:17:36.884Z,17.83
2018-08-17T20:20:08.228Z,17.95
2018-08-17T20:22:36.770Z,17.88
2018-08-17T20:25:12.040Z,17.78
2018-08-17T20:27:40.858Z,17.64
2018-08-17T20:30:14.739Z,17.77
2018-08-17T20:32:44.092Z,17.70
2018-08-17T20:35:12.801Z,17.52
2018-08-17T20:37:45.068Z,17.36
2018-08-17T20:40:13.740Z,17.38
2018-08-17T20:42:42.481Z,17.33
2018-08-17T20:45:11.398Z,17.41
2018-08-17T20:47:40.761Z,17.42
2018-08-17T20:50:13.195Z,17.35
2018-08-17T20:52:48.024Z,17.25
2018-08-17T20:55:16.538Z,17.10
2018-08-17T20:57:46.832Z,17.18
2018-08-17T21:00:15.353Z,17.21
2018-08-17T21:02:43.988Z,17.20
2018-08-17T21:05:12.525Z,17.13
2018-08-17T21:07:41.041Z,17.04
2018-08-17T21:10:10.876Z,16.94
2018-08-17T21:12:39.394Z,16.79
2018-08-17T21:15:08.046Z,16.65
2018-08-17T21:17:36.553Z,16.72
2018-08-17T21:20:05.735Z,16.71
2018-08-17T21:22:34.271Z,16.63
2018-08-17T21:25:02.841Z,16.40
2018-08-17T21:27:32.128Z,16.38
2018-08-17T21:30:00.859Z,16.32
2018-08-17T21:32:29.387Z,16.35
2018-08-17T21:34:58.041Z,16.31
2018-08-17T21:37:27.424Z,16.16
2018-08-17T21:39:56.078Z,16.12
2018-08-17T21:42:24.702Z,16.10
2018-08-17T21:44:53.194Z,15.94
2018-08-17T21:47:21.768Z,15.92
2018-08-17T21:49:50.488Z,15.79
2018-08-17T21:52:24.402Z,15.74
2018-08-17T21:54:52.905Z,15.78
2018-08-17T21:57:21.465Z,15.64
2018-08-17T21:59:50.780Z,15.54
2018-08-17T22:02:20.458Z,15.40
2018-08-17T22:04:49.064Z,15.30
2018-08-17T22:07:22.703Z,15.28
2018-08-17T22:09:52.024Z,15.28
2018-08-17T22:12:20.883Z,15.41
2018-08-17T22:14:50.184Z,15.36
2018-08-17T22:17:31.403Z,15.26
2018-08-17T22:20:00.161Z,15.09
2018-08-17T22:22:28.696Z,15.03
2018-08-17T22:24:58.450Z,14.90
2018-08-17T22:27:28.059Z,14.78
2018-08-17T22:29:58.059Z,14.84
2018-08-17T22:32:26.725Z,14.77
2018-08-17T22:34:55.731Z,14.68
2018-08-17T22:37:24.277Z,14.82
2018-08-17T22:39:52.777Z,14.72
2018-08-17T22:42:22.662Z,14.64
2018-08-17T22:44:51.326Z,14.69
2018-08-17T22:47:22.954Z,14.62
2018-08-17T22:49:52.426Z,14.56
2018-08-17T22:52:21.086Z,14.45
2018-08-17T22:54:54.872Z,14.33
2018-08-17T22:57:23.423Z,14.41
2018-08-17T23:00:08.396Z,14.42
2018-08-17T23:02:37.011Z,14.32
2018-08-17T23:05:06.520Z,14.27
2018-08-17T23:07:35.049Z,14.21
2018-08-17T23:10:03.918Z,14.22
2018-08-17T23:12:32.472Z,14.23
2018-08-17T23:15:00.968Z,14.36
2018-08-17T23:17:29.541Z,14.28
2018-08-17T23:19:58.571Z,14.24
2018-08-17T23:22:27.037Z,14.19
2018-08-17T23:24:55.666Z,14.23
2018-08-17T23:27:24.144Z,14.08
2018-08-17T23:29:52.641Z,13.98
2018-08-17T23:32:21.172Z,14.03
2018-08-17T23:34:49.799Z,13.99
2018-08-17T23:37:18.323Z,14.03
2018-08-17T23:39:47.048Z,13.95
2018-08-17T23:42:15.666Z,13.81
2018-08-17T23:44:44.149Z,13.72
2018-08-17T23:47:12.669Z,13.67
2018-08-17T23:49:41.208Z,13.65
2018-08-17T23:52:09.701Z,13.86
2018-08-17T23:54:39.277Z,13.89
2018-08-17T23:57:07.898Z,13.76
2018-08-17T23:59:36.414Z,13.71
